createdAt,value
2022-10-12T00:01:51.441Z,3.77
2022-10-12T00:04:21.307Z,3.60
2022-10-12T00:06:49.517Z,3.10
2022-10-12T00:09:17.733Z,3.67
2022-10-12T00:11:45.721Z,4.13
2022-10-12T00:14:13.825Z,4.57
2022-10-12T00:16:43.528Z,5.37
2022-10-12T00:19:14.095Z,4.40
2022-10-12T00:21:42.259Z,3.97
2022-10-12T00:24:11.184Z,4.10
2022-10-12T00:26:39.384Z,3.60
2022-10-12T00:29:07.555Z,3.60
2022-10-12T00:31:35.697Z,3.93
2022-10-12T00:34:05.527Z,3.93
2022-10-12T00:36:35.896Z,3.67
2022-10-12T00:39:08.026Z,4.17
2022-10-12T00:41:39.326Z,4.20
2022-10-12T00:44:38.601Z,3.90
2022-10-12T00:47:14.402Z,3.70
2022-10-12T00:49:48.365Z,3.97
2022-10-12T00:52:18.914Z,4.10
2022-10-12T00:54:51.179Z,3.37
2022-10-12T00:57:20.491Z,3.47
2022-10-12T00:59:51.935Z,3.60
2022-10-12T01:02:21.150Z,3.50
2022-10-12T01:04:50.908Z,3.80
2022-10-12T01:07:19.077Z,4.13
2022-10-12T01:09:47.610Z,4.10
2022-10-12T01:12:17.297Z,3.57
2022-10-12T01:14:45.802Z,4.00
2022-10-12T01:17:28.582Z,3.37
2022-10-12T01:20:22.930Z,4.20
2022-10-12T01:23:04.447Z,3.80
2022-10-12T01:25:50.993Z,3.80
2022-10-12T01:28:34.292Z,3.80
2022-10-12T01:31:10.876Z,3.87
2022-10-12T01:33:45.139Z,4.00
2022-10-12T01:36:20.737Z,3.70
2022-10-12T01:38:54.899Z,3.90
2022-10-12T01:41:28.225Z,4.13
2022-10-12T01:43:56.315Z,3.97
2022-10-12T01:46:46.257Z,3.97
2022-10-12T01:49:17.232Z,3.37
2022-10-12T01:51:59.445Z,3.40
2022-10-12T01:54:38.927Z,3.70
2022-10-12T01:57:15.505Z,3.53
2022-10-12T01:59:50.970Z,3.63
2022-10-12T02:02:28.071Z,3.40
2022-10-12T02:05:03.444Z,3.40
2022-10-12T02:07:40.750Z,3.60
2022-10-12T02:10:15.853Z,3.30
2022-10-12T02:12:45.696Z,3.23
2022-10-12T02:15:15.206Z,3.30
2022-10-12T02:17:48.751Z,3.20
2022-10-12T02:20:19.767Z,3.37
2022-10-12T02:22:51.676Z,3.33
2022-10-12T02:25:22.621Z,3.47
2022-10-12T02:27:56.645Z,2.90
2022-10-12T02:30:25.362Z,3.37
2022-10-12T02:33:02.127Z,3.17
2022-10-12T02:35:36.232Z,3.50
2022-10-12T02:38:10.928Z,3.37
2022-10-12T02:40:44.636Z,3.20
2022-10-12T02:43:17.814Z,2.90
2022-10-12T02:45:49.455Z,2.70
2022-10-12T02:48:23.308Z,3.13
2022-10-12T02:50:54.285Z,2.80
2022-10-12T02:53:24.289Z,3.13
2022-10-12T02:55:54.635Z,2.63
2022-10-12T02:58:22.852Z,2.60
2022-10-12T03:00:51.062Z,2.83
2022-10-12T03:03:20.709Z,3.07
2022-10-12T03:05:48.821Z,3.90
2022-10-12T03:08:17.033Z,3.50
2022-10-12T03:10:45.251Z,3.77
2022-10-12T03:13:13.388Z,3.53
2022-10-12T03:15:41.639Z,3.50
2022-10-12T03:18:09.799Z,3.70
2022-10-12T03:20:39.638Z,3.60
2022-10-12T03:23:07.728Z,3.60
2022-10-12T03:25:35.893Z,2.93
2022-10-12T03:28:04.013Z,3.30
2022-10-12T03:30:32.195Z,3.70
2022-10-12T03:33:00.313Z,3.57
2022-10-12T03:35:29.181Z,3.10
2022-10-12T03:37:58.765Z,3.20
2022-10-12T03:40:26.920Z,3.73
2022-10-12T03:42:55.140Z,3.37
2022-10-12T03:45:23.263Z,3.40
2022-10-12T03:47:51.414Z,3.47
2022-10-12T03:50:19.528Z,3.33
2022-10-12T03:52:47.766Z,3.47
2022-10-12T03:55:17.544Z,3.60
2022-10-12T03:57:45.976Z,3.40
2022-10-12T04:00:15.292Z,3.57
2022-10-12T04:02:43.279Z,4.47
2022-10-12T04:05:11.495Z,4.90
2022-10-12T04:07:39.799Z,4.13
2022-10-12T04:10:09.207Z,4.83
2022-10-12T04:12:38.970Z,4.70
2022-10-12T04:15:08.414Z,4.30
2022-10-12T04:17:36.774Z,5.20
2022-10-12T04:20:06.567Z,5.20
2022-10-12T04:22:35.126Z,4.30
2022-10-12T04:25:03.278Z,4.43
2022-10-12T04:27:31.546Z,4.80
2022-10-12T04:30:01.242Z,4.80
2022-10-12T04:32:29.423Z,4.70
2022-10-12T04:34:57.624Z,4.93
2022-10-12T04:37:28.085Z,4.40
2022-10-12T04:39:56.373Z,4.87
2022-10-12T04:42:26.630Z,4.10
2022-10-12T04:44:56.878Z,4.77
2022-10-12T04:47:28.816Z,5.03
2022-10-12T04:49:57.005Z,4.73
2022-10-12T04:52:25.147Z,4.90
2022-10-12T04:54:53.315Z,4.50
2022-10-12T04:57:21.612Z,4.73
2022-10-12T04:59:49.729Z,4.83
2022-10-12T05:02:19.797Z,4.70
2022-10-12T05:04:49.428Z,4.70
2022-10-12T05:07:17.619Z,5.63
2022-10-12T05:09:45.792Z,5.20
2022-10-12T05:12:13.884Z,4.83
2022-10-12T05:14:44.283Z,5.10
2022-10-12T05:17:12.767Z,5.13
2022-10-12T05:19:41.046Z,5.37
2022-10-12T05:22:10.724Z,4.93
2022-10-12T05:24:38.775Z,5.03
2022-10-12T05:27:06.946Z,5.93
2022-10-12T05:29:35.050Z,5.53
2022-10-12T05:32:08.450Z,5.67
2022-10-12T05:34:36.873Z,5.03
2022-10-12T05:37:05.252Z,5.43
2022-10-12T05:39:34.858Z,4.90
2022-10-12T05:42:07.947Z,5.30
2022-10-12T05:44:36.456Z,5.27
2022-10-12T05:47:05.076Z,5.23
2022-10-12T05:49:33.176Z,5.40
2022-10-12T05:52:01.530Z,5.53
2022-10-12T05:54:29.847Z,5.57
2022-10-12T05:57:00.698Z,5.47
2022-10-12T05:59:28.859Z,6.27
2022-10-12T06:01:57.277Z,6.30
2022-10-12T06:04:25.446Z,5.93
2022-10-12T06:06:53.705Z,5.83
2022-10-12T06:09:22.038Z,6.93
2022-10-12T06:11:50.620Z,6.00
2022-10-12T06:14:20.236Z,7.90
2022-10-12T06:16:51.095Z,7.20
2022-10-12T06:19:25.116Z,7.03
2022-10-12T06:21:53.346Z,7.10
2022-10-12T06:24:21.384Z,6.33
2022-10-12T06:26:49.873Z,6.33
2022-10-12T06:29:19.682Z,6.73
2022-10-12T06:31:51.839Z,6.67
2022-10-12T06:34:20.404Z,6.40
2022-10-12T06:36:48.671Z,6.07
2022-10-12T06:39:18.089Z,6.43
2022-10-12T06:41:46.667Z,6.47
2022-10-12T06:44:14.991Z,6.87
2022-10-12T06:46:44.726Z,6.23
2022-10-12T06:49:13.158Z,5.30
2022-10-12T06:51:41.452Z,5.83
2022-10-12T06:54:09.881Z,6.37
2022-10-12T06:56:40.769Z,5.93
2022-10-12T06:59:09.441Z,5.90
2022-10-12T07:01:37.758Z,5.43
2022-10-12T07:04:07.382Z,5.83
2022-10-12T07:06:35.545Z,5.90
2022-10-12T07:09:03.810Z,5.97
2022-10-12T07:11:31.935Z,5.40
2022-10-12T07:14:00.028Z,5.77
2022-10-12T07:16:28.168Z,5.70
2022-10-12T07:18:56.323Z,5.27
2022-10-12T07:21:26.112Z,5.67
2022-10-12T07:23:54.292Z,5.67
2022-10-12T07:26:22.512Z,5.57
2022-10-12T07:28:51.439Z,5.20
2022-10-12T07:31:19.755Z,5.23
2022-10-12T07:33:48.058Z,5.50
2022-10-12T07:36:21.252Z,5.80
2022-10-12T07:38:51.755Z,5.13
2022-10-12T07:41:20.221Z,5.50
2022-10-12T07:43:48.295Z,5.50
2022-10-12T07:46:16.557Z,5.47
2022-10-12T07:48:50.114Z,6.30
2022-10-12T07:51:18.948Z,5.70
2022-10-12T07:53:47.594Z,6.10
2022-10-12T07:56:17.707Z,6.10
2022-10-12T07:58:50.412Z,5.60
2022-10-12T08:01:20.347Z,5.40
2022-10-12T08:03:48.812Z,5.30
2022-10-12T08:06:21.530Z,5.43
2022-10-12T08:08:50.102Z,5.60
2022-10-12T08:11:20.602Z,5.70
2022-10-12T08:13:49.795Z,5.83
2022-10-12T08:16:20.734Z,4.70
2022-10-12T08:18:49.337Z,5.00
2022-10-12T08:21:18.220Z,4.97
2022-10-12T08:23:47.103Z,4.47
2022-10-12T08:26:16.877Z,5.03
2022-10-12T08:28:46.406Z,4.17
2022-10-12T08:31:17.699Z,4.57
2022-10-12T08:33:46.653Z,3.90
2022-10-12T08:36:15.150Z,4.00
2022-10-12T08:38:44.452Z,4.03
2022-10-12T08:41:25.162Z,4.13
2022-10-12T08:44:08.792Z,4.17
2022-10-12T08:46:37.071Z,4.27
2022-10-12T08:49:14.233Z,4.50
2022-10-12T08:51:48.678Z,3.73
2022-10-12T08:54:20.743Z,3.70
2022-10-12T08:56:49.129Z,3.60
2022-10-12T08:59:20.346Z,4.07
2022-10-12T09:02:00.546Z,3.80
2022-10-12T09:04:41.654Z,3.87
2022-10-12T09:07:13.903Z,3.63
2022-10-12T09:09:53.680Z,4.00
2022-10-12T09:12:33.867Z,3.50
2022-10-12T09:15:11.645Z,3.30
2022-10-12T09:17:42.525Z,3.00
2022-10-12T09:20:19.078Z,3.40
2022-10-12T09:22:50.969Z,3.43
2022-10-12T09:25:23.961Z,3.00
2022-10-12T09:27:53.305Z,3.50
2022-10-12T09:30:23.155Z,3.47
2022-10-12T09:33:15.896Z,2.93
2022-10-12T09:35:46.501Z,2.60
2022-10-12T09:38:15.478Z,3.10
2022-10-12T09:40:54.259Z,2.90
2022-10-12T09:43:32.887Z,2.43
2022-10-12T09:49:58.421Z,2.97
2022-10-12T09:53:06.837Z,2.37
2022-10-12T09:56:10.768Z,2.30
2022-10-12T09:58:55.712Z,2.30
2022-10-12T10:02:41.780Z,2.90
2022-10-12T10:05:44.673Z,2.27
2022-10-12T10:08:20.593Z,2.50
2022-10-12T10:10:53.104Z,2.17
2022-10-12T10:13:22.258Z,2.50
2022-10-12T10:15:52.481Z,2.20
2022-10-12T10:18:25.798Z,2.70
2022-10-12T10:21:07.802Z,2.37
2022-10-12T10:23:43.648Z,3.13
2022-10-12T10:26:15.292Z,3.37
2022-10-12T10:28:44.982Z,3.80
2022-10-12T10:31:23.006Z,3.10
2022-10-12T10:34:14.908Z,2.93
2022-10-12T10:36:48.590Z,2.43
2022-10-12T10:39:27.111Z,3.10
2022-10-12T10:41:56.456Z,2.90
2022-10-12T10:44:31.127Z,2.50
2022-10-12T10:47:05.537Z,2.50
2022-10-12T10:49:43.232Z,2.77
2022-10-12T10:52:24.469Z,2.30
2022-10-12T10:55:15.985Z,3.10
2022-10-12T10:57:48.278Z,2.40
2022-10-12T11:00:37.979Z,2.20
2022-10-12T11:03:14.444Z,2.47
2022-10-12T11:05:47.860Z,2.63
2022-10-12T11:08:23.344Z,3.00
2022-10-12T11:10:58.739Z,2.13
2022-10-12T11:13:32.436Z,2.37
2022-10-12T11:16:06.249Z,2.70
2022-10-12T11:18:39.866Z,2.37
2022-10-12T11:21:13.938Z,3.30
2022-10-12T11:23:49.506Z,2.10
2022-10-12T11:26:24.322Z,2.20
2022-10-12T11:28:54.403Z,2.40
2022-10-12T11:31:25.976Z,2.63
2022-10-12T11:34:03.419Z,2.83
2022-10-12T11:36:36.077Z,2.90
2022-10-12T11:39:09.159Z,2.97
2022-10-12T11:42:03.124Z,3.40
2022-10-12T11:44:42.163Z,3.53
2022-10-12T11:47:17.451Z,3.60
2022-10-12T11:49:57.886Z,3.23
2022-10-12T11:52:29.355Z,3.70
2022-10-12T11:55:31.541Z,4.30
2022-10-12T11:58:05.640Z,3.70
2022-10-12T12:00:44.398Z,3.87
2022-10-12T12:03:21.945Z,3.60
2022-10-12T12:05:52.573Z,3.97
2022-10-12T12:08:24.624Z,3.40
2022-10-12T12:11:20.033Z,3.97
2022-10-12T12:13:48.521Z,4.10
2022-10-12T12:16:34.145Z,3.73
2022-10-12T12:19:41.510Z,3.37
2022-10-12T12:22:23.789Z,3.47
2022-10-12T12:25:30.615Z,3.67
2022-10-12T12:28:20.049Z,3.10
2022-10-12T12:31:01.865Z,3.53
2022-10-12T12:33:35.255Z,3.13
2022-10-12T12:36:06.130Z,2.93
2022-10-12T12:38:36.920Z,3.70
2022-10-12T12:41:12.595Z,3.43
2022-10-12T12:44:06.385Z,2.97
2022-10-12T12:47:45.210Z,3.30
2022-10-12T12:50:31.240Z,3.57
2022-10-12T12:53:06.413Z,3.60
2022-10-12T12:55:50.498Z,3.43
2022-10-12T12:58:41.123Z,3.80
2022-10-12T13:01:32.251Z,3.63
2022-10-12T13:04:28.097Z,3.60
2022-10-12T13:07:29.505Z,3.27
2022-10-12T13:10:23.886Z,3.40
2022-10-12T13:13:19.412Z,2.90
2022-10-12T13:16:03.495Z,3.50
2022-10-12T13:18:59.300Z,3.67
2022-10-12T13:21:37.976Z,8.27
2022-10-12T13:24:19.091Z,4.20
2022-10-12T13:26:57.616Z,3.63
2022-10-12T13:29:42.755Z,3.93
2022-10-12T13:32:21.308Z,3.50
2022-10-12T13:34:57.936Z,4.50
2022-10-12T13:37:32.487Z,3.43
2022-10-12T13:40:00.873Z,3.70
2022-10-12T13:42:33.545Z,4.27
2022-10-12T13:45:04.482Z,3.33
2022-10-12T13:47:34.340Z,3.50
2022-10-12T13:50:04.106Z,4.23
2022-10-12T13:52:34.451Z,3.73
2022-10-12T13:55:02.830Z,4.40
2022-10-12T13:57:36.366Z,4.20
2022-10-12T14:00:11.713Z,3.97
2022-10-12T14:02:40.037Z,4.13
2022-10-12T14:05:18.165Z,3.73
2022-10-12T14:07:47.732Z,3.73
2022-10-12T14:10:21.371Z,3.60
2022-10-12T14:12:52.422Z,3.83
2022-10-12T14:15:26.109Z,3.60
2022-10-12T14:17:54.968Z,3.27
2022-10-12T14:20:35.015Z,3.10
2022-10-12T14:23:12.865Z,3.27
2022-10-12T14:25:53.993Z,2.97
2022-10-12T14:28:30.274Z,2.97
2022-10-12T14:30:58.646Z,3.30
2022-10-12T14:33:27.949Z,3.30
2022-10-12T14:36:16.697Z,3.23
2022-10-12T14:38:47.229Z,3.10
2022-10-12T14:41:36.794Z,3.53
2022-10-12T14:44:10.787Z,3.50
2022-10-12T14:46:40.879Z,3.73
2022-10-12T14:49:17.804Z,3.23
2022-10-12T14:51:49.128Z,3.53
2022-10-12T14:54:17.708Z,3.60
2022-10-12T14:56:49.006Z,4.23
2022-10-12T14:59:17.316Z,3.50
2022-10-12T15:01:48.961Z,4.00
2022-10-12T15:04:26.650Z,3.53
2022-10-12T15:06:59.902Z,3.50
2022-10-12T15:09:33.154Z,3.13
2022-10-12T15:12:02.557Z,3.70
2022-10-12T15:14:31.794Z,4.20
2022-10-12T15:17:00.208Z,4.03
2022-10-12T15:19:32.384Z,3.70
2022-10-12T15:22:02.135Z,3.77
2022-10-12T15:24:34.578Z,4.00
2022-10-12T15:27:04.908Z,3.67
2022-10-12T15:29:33.204Z,3.20
2022-10-12T15:32:01.691Z,3.77
2022-10-12T15:34:29.854Z,3.40
2022-10-12T15:37:08.666Z,3.60
2022-10-12T15:39:45.964Z,3.60
2022-10-12T15:42:19.027Z,3.90
2022-10-12T15:44:47.240Z,4.30
2022-10-12T15:47:16.638Z,3.93
2022-10-12T15:49:47.697Z,4.50
2022-10-12T15:52:22.307Z,3.90
2022-10-12T15:54:55.734Z,4.00
2022-10-12T15:57:32.772Z,3.50
2022-10-12T16:00:01.250Z,4.00
2022-10-12T16:02:29.543Z,4.30
2022-10-12T16:04:57.803Z,4.57
2022-10-12T16:07:30.013Z,4.53
2022-10-12T16:10:03.235Z,3.47
2022-10-12T16:12:31.473Z,3.50
2022-10-12T16:15:05.347Z,3.70
2022-10-12T16:17:42.540Z,3.70
2022-10-12T16:20:12.489Z,4.20
2022-10-12T16:22:43.066Z,4.17
2022-10-12T16:25:20.970Z,4.20
2022-10-12T16:27:52.637Z,4.83
2022-10-12T16:30:21.685Z,4.47
2022-10-12T16:32:53.560Z,3.97
2022-10-12T16:35:21.763Z,3.63
2022-10-12T16:37:51.579Z,3.50
2022-10-12T16:40:27.649Z,3.57
2022-10-12T16:42:58.320Z,3.50
2022-10-12T16:45:30.146Z,3.90
2022-10-12T16:48:01.303Z,3.57
2022-10-12T16:50:35.299Z,4.87
2022-10-12T16:54:20.800Z,5.30
2022-10-12T16:56:54.794Z,4.70
2022-10-12T16:59:44.911Z,4.20
2022-10-12T17:39:46.178Z,6.30
2022-10-12T17:42:14.629Z,6.00
2022-10-12T17:44:52.145Z,4.80
2022-10-12T17:47:23.224Z,4.60
2022-10-12T17:49:51.379Z,4.87
